Time,TemperatureF,DewpointF,PressureIn,WindDirection,WindDirectionDegrees,WindSpeedMPH,WindSpeedGustMPH,Humidity,HourlyPrecipIn,Conditions,Clouds,dailyrainin,SoftwareType,DateUTC
2013-09-11 00:08:00,72.1,64.0,29.85,North,350,0.0,-999.0,75,-99.99,,,0.00,weatherlink.com 1.10,2013-09-11 05:08:00,
2013-09-11 00:23:00,71.8,64.0,29.85,WSW,258,0.0,-999.0,76,-99.99,,,0.00,weatherlink.com 1.10,2013-09-11 05:23:00,
2013-09-11 00:39:00,71.5,64.0,29.85,WSW,254,0.0,-999.0,76,-99.99,,,0.00,weatherlink.com 1.10,2013-09-11 05:39:00,
2013-09-11 00:54:00,71.1,63.0,29.85,WSW,254,0.0,-999.0,76,-99.99,,,0.00,weatherlink.com 1.10,2013-09-11 05:54:00,
2013-09-11 01:09:00,70.9,63.0,29.85,WSW,254,2.0,-999.0,76,-99.99,,,0.00,weatherlink.com 1.10,2013-09-11 06:09:00,
2013-09-11 01:24:00,70.4,63.0,29.87,WSW,254,0.0,-999.0,76,-99.99,,,0.00,weatherlink.com 1.10,2013-09-11 06:24:00,
2013-09-11 01:39:00,70.3,62.0,29.87,SW,236,0.0,-999.0,76,-99.99,,,0.00,weatherlink.com 1.10,2013-09-11 06:39:00,
2013-09-11 01:54:00,69.9,62.0,29.87,SW,236,0.0,-999.0,77,-99.99,,,0.00,weatherlink.com 1.10,2013-09-11 06:54:00,
2013-09-11 02:09:00,69.4,62.0,29.87,SW,236,1.0,-999.0,76,-99.99,,,0.00,weatherlink.com 1.10,2013-09-11 07:09:00,
2013-09-11 02:24:00,68.9,61.0,29.87,NW,323,0.0,-999.0,76,-99.99,,,0.00,weatherlink.com 1.10,2013-09-11 07:24:00,
2013-09-11 02:39:00,68.3,60.0,29.87,NW,323,0.0,-999.0,76,-99.99,,,0.00,weatherlink.com 1.10,2013-09-11 07:39:00,
2013-09-11 02:54:00,67.8,60.0,29.88,NW,322,0.0,-999.0,76,-99.99,,,0.00,weatherlink.com 1.10,2013-09-11 07:54:00,
2013-09-11 03:09:00,67.3,60.0,29.88,NW,323,0.0,-999.0,77,-99.99,,,0.00,weatherlink.com 1.10,2013-09-11 08:09:00,
2013-09-11 03:24:00,66.9,59.0,29.88,NW,323,0.0,-999.0,77,-99.99,,,0.00,weatherlink.com 1.10,2013-09-11 08:24:00,
2013-09-11 03:39:00,66.6,59.0,29.88,NW,323,0.0,-999.0,77,-99.99,,,0.00,weatherlink.com 1.10,2013-09-11 08:39:00,
2013-09-11 03:54:00,66.3,59.0,29.88,NW,322,0.0,-999.0,77,-99.99,,,0.00,weatherlink.com 1.10,2013-09-11 08:54:00,
2013-09-11 04:09:00,66.0,59.0,29.89,NW,322,0.0,-999.0,77,-99.99,,,0.00,weatherlink.com 1.10,2013-09-11 09:09:00,
2013-09-11 04:24:00,65.8,59.0,29.89,WNW,283,0.0,-999.0,78,-99.99,,,0.00,weatherlink.com 1.10,2013-09-11 09:24:00,
2013-09-11 04:39:00,65.5,59.0,29.88,WNW,282,0.0,-999.0,79,-99.99,,,0.00,weatherlink.com 1.10,2013-09-11 09:39:00,
2013-09-11 04:54:00,65.2,59.0,29.89,West,279,0.0,-999.0,79,-99.99,,,0.00,weatherlink.com 1.10,2013-09-11 09:54:00,
2013-09-11 05:09:00,65.0,59.0,29.90,West,279,0.0,-999.0,80,-99.99,,,0.00,weatherlink.com 1.10,2013-09-11 10:09:00,
2013-09-11 05:24:00,64.7,59.0,29.91,West,279,0.0,-999.0,81,-99.99,,,0.00,weatherlink.com 1.10,2013-09-11 10:24:00,
2013-09-11 05:39:00,64.3,59.0,29.91,West,279,0.0,-999.0,82,-99.99,,,0.00,weatherlink.com 1.10,2013-09-11 10:39:00,
2013-09-11 05:54:00,64.0,58.0,29.92,West,279,0.0,-999.0,81,-99.99,,,0.00,weatherlink.com 1.10,2013-09-11 10:54:00,
2013-09-11 06:09:00,63.5,58.0,29.93,West,279,0.0,-999.0,83,-99.99,,,0.00,weatherlink.com 1.10,2013-09-11 11:09:00,
2013-09-11 06:24:00,63.4,58.0,29.93,West,279,0.0,-999.0,83,-99.99,,,0.00,weatherlink.com 1.10,2013-09-11 11:24:00,
2013-09-11 06:39:00,63.2,58.0,29.93,West,279,0.0,-999.0,82,-99.99,,,0.00,weatherlink.com 1.10,2013-09-11 11:39:00,
2013-09-11 06:54:00,62.9,58.0,29.93,West,279,0.0,-999.0,83,-99.99,,,0.00,weatherlink.com 1.10,2013-09-11 11:54:00,
2013-09-11 07:09:00,62.6,58.0,29.93,West,279,0.0,-999.0,84,-99.99,,,0.00,weatherlink.com 1.10,2013-09-11 12:09:00,
2013-09-11 07:24:00,62.1,58.0,29.93,West,279,0.0,-999.0,85,-99.99,,,0.00,weatherlink.com 1.10,2013-09-11 12:24:00,
2013-09-11 07:39:00,62.0,58.0,29.93,NNW,329,0.0,-999.0,87,-99.99,,,0.00,weatherlink.com 1.10,2013-09-11 12:39:00,
2013-09-11 07:54:00,61.8,58.0,29.93,NNW,329,0.0,-999.0,88,-99.99,,,0.00,weatherlink.com 1.10,2013-09-11 12:54:00,
2013-09-11 08:10:00,61.8,59.0,29.93,NNW,329,0.0,-999.0,89,-99.99,,,0.00,weatherlink.com 1.10,2013-09-11 13:10:00,
2013-09-11 08:25:00,62.0,59.0,29.93,NNW,329,0.0,-999.0,90,-99.99,,,0.00,weatherlink.com 1.10,2013-09-11 13:25:00,
2013-09-11 08:40:00,62.1,59.0,29.93,NNW,329,0.0,-999.0,90,-99.99,,,0.00,weatherlink.com 1.10,2013-09-11 13:40:00,
2013-09-11 08:55:00,62.3,59.0,29.93,NNW,329,0.0,-999.0,90,-99.99,,,0.00,weatherlink.com 1.10,2013-09-11 13:55:00,
2013-09-11 09:10:00,63.1,60.0,29.93,SSE,157,0.0,-999.0,88,-99.99,,,0.00,weatherlink.com 1.10,2013-09-11 14:10:00,
2013-09-11 09:25:00,64.5,59.0,29.93,SW,228,1.0,-999.0,83,-99.99,,,0.00,weatherlink.com 1.10,2013-09-11 14:25:00,
2013-09-11 09:40:00,66.6,59.0,29.92,SW,228,1.0,-999.0,77,-99.99,,,0.00,weatherlink.com 1.10,2013-09-11 14:40:00,
2013-09-11 09:55:00,68.6,60.0,29.92,SSW,206,2.0,-999.0,73,-99.99,,,0.00,weatherlink.com 1.10,2013-09-11 14:55:00,
2013-09-11 10:10:00,70.8,59.0,29.91,South,186,0.0,-999.0,67,-99.99,,,0.00,weatherlink.com 1.10,2013-09-11 15:10:00,
2013-09-11 10:25:00,72.8,60.0,29.91,SW,228,3.0,-999.0,64,-99.99,,,0.00,weatherlink.com 1.10,2013-09-11 15:25:00,
2013-09-11 10:40:00,76.0,60.0,29.91,WSW,238,2.0,-999.0,58,-99.99,,,0.00,weatherlink.com 1.10,2013-09-11 15:40:00,
2013-09-11 10:55:00,78.5,60.0,29.90,WSW,254,2.0,-999.0,54,-99.99,,,0.00,weatherlink.com 1.10,2013-09-11 15:55:00,
2013-09-11 11:10:00,80.5,62.0,29.89,West,276,0.0,-999.0,53,-99.99,,,0.00,weatherlink.com 1.10,2013-09-11 16:10:00,
2013-09-11 11:25:00,82.4,60.0,29.89,SSE,150,4.0,-999.0,47,-99.99,,,0.00,weatherlink.com 1.10,2013-09-11 16:25:00,
2013-09-11 11:40:00,83.6,61.0,29.89,South,184,2.0,-999.0,46,-99.99,,,0.00,weatherlink.com 1.10,2013-09-11 16:40:00,
2013-09-11 11:55:00,84.3,61.0,29.88,North,350,0.0,-999.0,46,-99.99,,,0.00,weatherlink.com 1.10,2013-09-11 16:55:00,
2013-09-11 12:10:00,85.5,59.0,29.88,SSW,212,2.0,-999.0,40,-99.99,,,0.00,weatherlink.com 1.10,2013-09-11 17:10:00,
2013-09-11 12:25:00,86.1,58.0,29.88,SSW,206,0.0,-999.0,38,-99.99,,,0.00,weatherlink.com 1.10,2013-09-11 17:25:00,
2013-09-11 12:40:00,87.6,58.0,29.87,West,271,0.0,-999.0,37,-99.99,,,0.00,weatherlink.com 1.10,2013-09-11 17:40:00,
2013-09-11 12:55:00,87.0,56.0,29.87,WSW,251,1.0,-999.0,35,-99.99,,,0.00,weatherlink.com 1.10,2013-09-11 17:55:00,
2013-09-11 13:11:00,86.7,56.0,29.87,SW,230,0.0,-999.0,35,-99.99,,,0.00,weatherlink.com 1.10,2013-09-11 18:11:00,
2013-09-11 13:26:00,87.8,55.0,29.86,WSW,250,2.0,-999.0,33,-99.99,,,0.00,weatherlink.com 1.10,2013-09-11 18:26:00,
2013-09-11 13:41:00,87.8,57.0,29.86,SW,235,1.0,-999.0,35,-99.99,,,0.00,weatherlink.com 1.10,2013-09-11 18:41:00,
2013-09-11 13:56:00,86.1,55.0,29.86,NE,34,2.0,-999.0,35,-99.99,,,0.00,weatherlink.com 1.10,2013-09-11 18:56:00,
2013-09-11 14:11:00,85.1,54.0,29.86,West,266,0.0,-999.0,34,-99.99,,,0.00,weatherlink.com 1.10,2013-09-11 19:11:00,
2013-09-11 14:26:00,84.7,54.0,29.86,West,264,3.0,-999.0,35,-99.99,,,0.00,weatherlink.com 1.10,2013-09-11 19:26:00,
2013-09-11 14:41:00,86.3,51.0,29.86,WSW,240,1.0,-999.0,30,-99.99,,,0.00,weatherlink.com 1.10,2013-09-11 19:41:00,
2013-09-11 14:56:00,87.6,50.0,29.86,SSW,208,3.0,-999.0,27,-99.99,,,0.00,weatherlink.com 1.10,2013-09-11 19:56:00,
2013-09-11 15:11:00,89.0,50.0,29.85,East,98,0.0,-999.0,26,-99.99,,,0.00,weatherlink.com 1.10,2013-09-11 20:11:00,
2013-09-11 15:26:00,89.0,50.0,29.86,NNE,28,1.0,-999.0,26,-99.99,,,0.00,weatherlink.com 1.10,2013-09-11 20:26:00,
2013-09-11 15:41:00,88.0,51.0,29.86,ENE,77,1.0,-999.0,28,-99.99,,,0.00,weatherlink.com 1.10,2013-09-11 20:41:00,
2013-09-11 15:56:00,88.6,51.0,29.86,West,263,3.0,-999.0,27,-99.99,,,0.00,weatherlink.com 1.10,2013-09-11 20:56:00,
2013-09-11 16:11:00,88.4,54.0,29.86,NE,51,3.0,-999.0,31,-99.99,,,0.00,weatherlink.com 1.10,2013-09-11 21:11:00,
2013-09-11 16:26:00,86.5,55.0,29.86,NNE,12,2.0,-999.0,34,-99.99,,,0.00,weatherlink.com 1.10,2013-09-11 21:26:00,
2013-09-11 16:41:00,85.1,55.0,29.86,WSW,248,1.0,-999.0,36,-99.99,,,0.00,weatherlink.com 1.10,2013-09-11 21:41:00,
2013-09-11 17:11:00,82.4,54.0,29.88,North,5,2.0,-999.0,37,-99.99,,,0.00,weatherlink.com 1.10,2013-09-11 22:11:00,
2013-09-11 17:26:00,81.8,52.0,29.88,NE,36,3.0,-999.0,35,-99.99,,,0.00,weatherlink.com 1.10,2013-09-11 22:26:00,
2013-09-11 17:41:00,81.6,51.0,29.88,NNE,25,2.0,-999.0,34,-99.99,,,0.00,weatherlink.com 1.10,2013-09-11 22:41:00,
2013-09-11 17:56:00,81.6,50.0,29.89,North,9,1.0,-999.0,33,-99.99,,,0.00,weatherlink.com 1.10,2013-09-11 22:56:00,
2013-09-11 18:11:00,81.2,50.0,29.89,NNE,13,2.0,-999.0,34,-99.99,,,0.00,weatherlink.com 1.10,2013-09-11 23:11:00,
2013-09-11 18:26:00,80.7,49.0,29.89,NNW,348,0.0,-999.0,33,-99.99,,,0.00,weatherlink.com 1.10,2013-09-11 23:26:00,
2013-09-11 18:41:00,79.9,49.0,29.89,NNE,16,1.0,-999.0,34,-99.99,,,0.00,weatherlink.com 1.10,2013-09-11 23:41:00,
2013-09-11 18:56:00,78.6,47.0,29.90,North,5,4.0,-999.0,33,-99.99,,,0.00,weatherlink.com 1.10,2013-09-11 23:56:00,
2013-09-11 19:11:00,77.4,47.0,29.90,West,271,0.0,-999.0,34,-99.99,,,0.00,weatherlink.com 1.10,2013-09-12 00:11:00,
2013-09-11 19:26:00,76.3,47.0,29.91,NNE,18,0.0,-999.0,35,-99.99,,,0.00,weatherlink.com 1.10,2013-09-12 00:26:00,
2013-09-11 19:41:00,75.3,47.0,29.90,North,9,0.0,-999.0,37,-99.99,,,0.00,weatherlink.com 1.10,2013-09-12 00:41:00,
2013-09-11 19:56:00,74.4,47.0,29.91,North,9,0.0,-999.0,38,-99.99,,,0.00,weatherlink.com 1.10,2013-09-12 00:56:00,
2013-09-11 20:12:00,72.5,48.0,29.91,North,9,0.0,-999.0,42,-99.99,,,0.00,weatherlink.com 1.10,2013-09-12 01:12:00,
2013-09-11 20:27:00,70.8,48.0,29.91,North,9,0.0,-999.0,45,-99.99,,,0.00,weatherlink.com 1.10,2013-09-12 01:27:00,
2013-09-11 20:42:00,69.1,49.0,29.91,North,9,0.0,-999.0,49,-99.99,,,0.00,weatherlink.com 1.10,2013-09-12 01:42:00,
2013-09-11 20:57:00,67.4,51.0,29.91,North,9,0.0,-999.0,55,-99.99,,,0.00,weatherlink.com 1.10,2013-09-12 01:57:00,
2013-09-11 21:12:00,66.0,51.0,29.92,North,9,0.0,-999.0,59,-99.99,,,0.00,weatherlink.com 1.10,2013-09-12 02:12:00,
2013-09-11 21:27:00,64.7,51.0,29.92,North,9,0.0,-999.0,62,-99.99,,,0.00,weatherlink.com 1.10,2013-09-12 02:27:00,
2013-09-11 21:42:00,63.4,51.0,29.92,North,9,0.0,-999.0,65,-99.99,,,0.00,weatherlink.com 1.10,2013-09-12 02:42:00,
2013-09-11 21:57:00,62.4,51.0,29.92,North,9,0.0,-999.0,67,-99.99,,,0.00,weatherlink.com 1.10,2013-09-12 02:57:00,
2013-09-11 22:12:00,61.5,51.0,29.92,North,9,0.0,-999.0,68,-99.99,,,0.00,weatherlink.com 1.10,2013-09-12 03:12:00,
2013-09-11 22:27:00,60.5,50.0,29.91,North,9,0.0,-999.0,69,-99.99,,,0.00,weatherlink.com 1.10,2013-09-12 03:27:00,
2013-09-11 22:42:00,59.8,50.0,29.91,North,9,0.0,-999.0,70,-99.99,,,0.00,weatherlink.com 1.10,2013-09-12 03:42:00,
2013-09-11 22:57:00,59.2,50.0,29.90,North,9,0.0,-999.0,71,-99.99,,,0.00,weatherlink.com 1.10,2013-09-12 03:57:00,
2013-09-11 23:12:00,58.6,50.0,29.90,North,9,0.0,-999.0,73,-99.99,,,0.00,weatherlink.com 1.10,2013-09-12 04:12:00,
2013-09-11 23:27:00,58.1,50.0,29.89,North,9,0.0,-999.0,75,-99.99,,,0.00,weatherlink.com 1.10,2013-09-12 04:27:00,
2013-09-11 23:42:00,57.6,50.0,29.89,North,9,0.0,-999.0,75,-99.99,,,0.00,weatherlink.com 1.10,2013-09-12 04:42:00,
2013-09-11 23:57:00,57.3,50.0,29.89,North,9,0.0,-999.0,76,-99.99,,,0.00,weatherlink.com 1.10,2013-09-12 04:57:00,